Time;durP1;ratioP1;P1;durP2;ratioP2;P2;SDS_P1;SDS_P2;PMS_P1;PMS_P2;Temp;Humidity;BMP_temperature;BMP_pressure;BME280_temperature;BME280_humidity;BME280_pressure;Samples;Min_cycle;Max_cycle;Signal;HPM_P1;HPM_P2
2023/10/16 00:00:56;;;;;;;9.20;3.25;;;;;;;;;;5029962;28;20437;-86
2023/10/16 00:03:22;;;;;;;7.20;2.33;;;;;;;;;;5028715;28;20467;-86
2023/10/16 00:05:51;;;;;;;8.98;2.90;;;;;;;;;;5019825;28;20178;-87
2023/10/16 00:08:18;;;;;;;5.50;2.70;;;;;;;;;;5009839;28;20041;-88
2023/10/16 00:10:57;;;;;;;13.43;2.53;;;;;;;;;;5044856;28;20032;-86
2023/10/16 00:13:26;;;;;;;6.93;2.80;;;;;;;;;;5026382;28;20075;-87
2023/10/16 00:15:54;;;;;;;7.50;2.50;;;;;;;;;;5018697;28;20087;-86
2023/10/16 00:18:23;;;;;;;9.88;2.65;;;;;;;;;;5030588;28;20022;-87
2023/10/16 00:20:55;;;;;;;6.57;2.83;;;;;;;;;;5026137;28;20025;-85
2023/10/16 00:23:30;;;;;;;7.68;3.03;;;;;;;;;;5024398;28;20025;-86
2023/10/16 00:25:56;;;;;;;12.35;2.50;;;;;;;;;;5036005;28;20544;-85
2023/10/16 00:28:22;;;;;;;8.30;2.95;;;;;;;;;;5050727;28;20074;-87
2023/10/16 00:30:49;;;;;;;10.27;2.88;;;;;;;;;;5036001;28;20057;-86
2023/10/16 00:33:16;;;;;;;5.07;2.73;;;;;;;;;;5018377;28;20037;-86
2023/10/16 00:35:45;;;;;;;9.23;2.90;;;;;;;;;;5035839;28;20024;-87
2023/10/16 00:38:13;;;;;;;4.90;2.53;;;;;;;;;;5048141;28;20025;-86
2023/10/16 00:41:28;;;;;;;8.68;2.60;;;;;;;;;;5016977;28;20340;-85
2023/10/16 00:43:32;;;;;;;7.00;2.30;;;;;;;;;;5024891;28;20125;-86
2023/10/16 00:46:11;;;;;;;11.15;2.72;;;;;;;;;;5054649;28;20045;-87
2023/10/16 00:48:39;;;;;;;7.28;2.53;;;;;;;;;;5034335;28;20037;-86
2023/10/16 00:51:09;;;;;;;13.27;2.90;;;;;;;;;;5044184;28;20017;-86
2023/10/16 00:53:36;;;;;;;11.55;2.50;;;;;;;;;;5051651;28;20059;-85
2023/10/16 00:56:07;;;;;;;9.60;3.33;;;;;;;;;;5040151;28;20014;-86
2023/10/16 00:58:34;;;;;;;13.30;3.42;;;;;;;;;;5012847;28;20133;-92
2023/10/16 01:01:03;;;;;;;5.68;2.53;;;;;;;;;;5025429;28;20017;-90
2023/10/16 01:03:31;;;;;;;9.30;2.13;;;;;;;;;;5036083;28;20014;-90
2023/10/16 01:05:58;;;;;;;5.80;2.58;;;;;;;;;;5019503;28;20018;-90
2023/10/16 01:08:28;;;;;;;6.82;2.92;;;;;;;;;;5020813;28;20462;-89
2023/10/16 01:10:57;;;;;;;5.38;2.92;;;;;;;;;;5036805;28;20419;-90
2023/10/16 01:13:26;;;;;;;5.22;2.92;;;;;;;;;;5046472;28;20551;-90
2023/10/16 01:15:53;;;;;;;5.53;2.20;;;;;;;;;;5016668;28;20049;-91
2023/10/16 01:18:19;;;;;;;6.77;2.90;;;;;;;;;;5045126;28;20474;-90
2023/10/16 01:20:49;;;;;;;12.32;3.40;;;;;;;;;;5035748;28;20342;-89
2023/10/16 01:23:21;;;;;;;7.43;3.00;;;;;;;;;;5017187;28;20489;-90
2023/10/16 01:25:48;;;;;;;9.60;2.63;;;;;;;;;;5028701;28;20033;-88
2023/10/16 01:28:15;;;;;;;8.00;2.67;;;;;;;;;;5035445;28;20091;-84
2023/10/16 01:30:45;;;;;;;7.40;3.50;;;;;;;;;;5023892;28;20032;-85
2023/10/16 01:33:12;;;;;;;9.27;2.72;;;;;;;;;;5030344;28;20100;-84
2023/10/16 01:35:38;;;;;;;12.88;2.97;;;;;;;;;;5010621;28;20087;-85
2023/10/16 01:38:27;;;;;;;7.75;3.15;;;;;;;;;;5024654;28;20082;-84
2023/10/16 01:41:05;;;;;;;5.78;2.13;;;;;;;;;;5025914;28;20037;-84
2023/10/16 01:43:35;;;;;;;8.00;3.33;;;;;;;;;;4997489;28;20064;-85
2023/10/16 01:46:03;;;;;;;8.25;2.72;;;;;;;;;;5011198;28;20025;-85
2023/10/16 01:48:30;;;;;;;5.75;2.67;;;;;;;;;;5016186;28;20061;-85
2023/10/16 01:50:57;;;;;;;11.57;3.05;;;;;;;;;;5008030;28;20101;-85
2023/10/16 01:53:26;;;;;;;5.95;2.70;;;;;;;;;;5024816;28;20152;-86
2023/10/16 01:55:54;;;;;;;4.80;2.53;;;;;;;;;;5023061;28;20069;-84
2023/10/16 01:58:21;;;;;;;7.20;3.78;;;;;;;;;;5017293;28;20021;-85
2023/10/16 02:00:48;;;;;;;7.70;2.42;;;;;;;;;;5015578;28;20026;-85
2023/10/16 02:03:17;;;;;;;7.00;2.92;;;;;;;;;;5015871;28;20052;-85
2023/10/16 02:05:45;;;;;;;9.45;3.22;;;;;;;;;;5012345;28;20025;-84
2023/10/16 02:08:14;;;;;;;5.95;3.45;;;;;;;;;;5023082;28;20034;-85
2023/10/16 02:10:43;;;;;;;4.38;2.88;;;;;;;;;;5040550;28;20026;-84
2023/10/16 02:13:10;;;;;;;7.78;2.45;;;;;;;;;;5021894;28;20025;-86
2023/10/16 02:15:37;;;;;;;6.85;2.95;;;;;;;;;;5059092;28;20041;-87
2023/10/16 02:18:09;;;;;;;9.45;2.95;;;;;;;;;;5044087;28;20052;-89
2023/10/16 02:20:38;;;;;;;10.85;3.03;;;;;;;;;;5000097;28;20558;-89
2023/10/16 02:23:07;;;;;;;7.45;3.40;;;;;;;;;;5015677;28;20034;-89
2023/10/16 02:25:34;;;;;;;8.02;2.90;;;;;;;;;;5001150;28;20026;-87
2023/10/16 02:28:00;;;;;;;7.30;2.78;;;;;;;;;;5066385;28;20096;-87
2023/10/16 02:33:10;;;;;;;5.72;2.88;;;;;;;;;;5034802;28;20041;-87
2023/10/16 02:35:37;;;;;;;8.13;2.63;;;;;;;;;;5034122;28;20051;-86
2023/10/16 02:38:04;;;;;;;4.20;2.40;;;;;;;;;;5024552;28;20029;-87
2023/10/16 02:40:32;;;;;;;6.93;3.13;;;;;;;;;;5001302;28;20105;-86
2023/10/16 02:43:04;;;;;;;5.30;2.97;;;;;;;;;;5019725;28;20382;-86
2023/10/16 02:45:33;;;;;;;7.80;2.83;;;;;;;;;;5018656;28;20021;-86
2023/10/16 02:48:01;;;;;;;5.53;2.70;;;;;;;;;;5035800;28;20045;-85
2023/10/16 02:50:28;;;;;;;8.27;3.33;;;;;;;;;;5030398;28;20025;-87
2023/10/16 02:52:56;;;;;;;7.22;2.90;;;;;;;;;;5028239;28;20018;-86
2023/10/16 02:55:23;;;;;;;;;;;;;;;;;;5033415;28;20013;-85
2023/10/16 02:57:50;;;;;;;10.77;2.92;;;;;;;;;;5034294;28;19944;-85
2023/10/16 03:00:24;;;;;;;5.47;2.55;;;;;;;;;;5016932;28;20018;-89
2023/10/16 03:02:51;;;;;;;6.75;2.63;;;;;;;;;;5016149;28;20124;-87
2023/10/16 03:05:25;;;;;;;5.50;2.20;;;;;;;;;;5024021;28;20078;-87
2023/10/16 03:07:51;;;;;;;7.20;2.95;;;;;;;;;;5020483;28;20041;-90
2023/10/16 03:10:20;;;;;;;4.03;2.63;;;;;;;;;;5033321;28;20018;-88
2023/10/16 03:12:49;;;;;;;8.02;3.28;;;;;;;;;;5009816;28;20030;-88
2023/10/16 03:15:31;;;;;;;4.35;2.85;;;;;;;;;;5019467;28;20123;-88
2023/10/16 03:17:57;;;;;;;10.63;2.58;;;;;;;;;;5017153;28;20113;-87
2023/10/16 03:20:45;;;;;;;4.82;2.45;;;;;;;;;;5034737;28;20021;-88
2023/10/16 03:23:12;;;;;;;4.93;2.60;;;;;;;;;;5020802;28;20048;-87
2023/10/16 03:28:08;;;;;;;8.48;2.85;;;;;;;;;;5038467;28;20041;-87
2023/10/16 03:30:34;;;;;;;9.57;2.78;;;;;;;;;;5038711;28;20025;-88
2023/10/16 03:33:04;;;;;;;6.72;3.22;;;;;;;;;;5037458;28;20482;-88
2023/10/16 03:35:31;;;;;;;8.82;2.38;;;;;;;;;;5019322;28;20033;-87
2023/10/16 03:37:58;;;;;;;4.93;2.72;;;;;;;;;;5019921;28;20059;-88
2023/10/16 03:40:27;;;;;;;5.80;2.85;;;;;;;;;;5048735;28;20018;-89
2023/10/16 03:42:54;;;;;;;8.63;3.08;;;;;;;;;;5023548;28;20120;-88
2023/10/16 03:45:24;;;;;;;10.20;3.55;;;;;;;;;;5008351;28;20026;-88
2023/10/16 03:47:51;;;;;;;10.90;3.05;;;;;;;;;;5005140;28;20063;-88
2023/10/16 03:50:34;;;;;;;7.43;2.67;;;;;;;;;;5020223;28;20490;-85
2023/10/16 03:53:01;;;;;;;8.98;2.67;;;;;;;;;;5037458;28;20025;-84
2023/10/16 03:55:28;;;;;;;13.53;2.90;;;;;;;;;;5029736;28;20021;-86
2023/10/16 03:57:57;;;;;;;8.05;2.90;;;;;;;;;;5026582;28;20284;-84
2023/10/16 04:00:27;;;;;;;5.20;2.65;;;;;;;;;;5055871;28;20010;-85
2023/10/16 04:02:59;;;;;;;9.98;2.70;;;;;;;;;;5042806;28;20022;-85
2023/10/16 04:08:10;;;;;;;8.00;2.92;;;;;;;;;;5033418;28;20040;-85
2023/10/16 04:10:40;;;;;;;9.38;2.88;;;;;;;;;;5031658;28;20109;-84
2023/10/16 04:13:07;;;;;;;5.65;2.95;;;;;;;;;;5006518;28;20030;-85
2023/10/16 04:18:46;;;;;;;10.52;3.00;;;;;;;;;;5038675;28;20030;-86
2023/10/16 04:31:44;;;;;;;8.15;3.33;;;;;;;;;;5034430;28;20041;-86
2023/10/16 04:36:54;;;;;;;9.02;3.22;;;;;;;;;;5060234;28;20052;-86
2023/10/16 04:50:29;;;;;;;8.00;3.20;;;;;;;;;;5036880;28;20037;-87
2023/10/16 05:06:38;;;;;;;9.90;3.70;;;;;;;;;;5047326;28;20036;-93
2023/10/16 05:18:00;;;;;;;11.23;3.70;;;;;;;;;;4963774;28;20053;-94
2023/10/16 06:16:02;;;;;;;12.70;4.95;;;;;;;;;;5028415;28;20145;-87
2023/10/16 06:18:30;;;;;;;8.52;3.35;;;;;;;;;;5029810;28;20018;-87
2023/10/16 06:21:00;;;;;;;10.55;4.22;;;;;;;;;;5017107;28;20018;-88
2023/10/16 06:23:28;;;;;;;6.43;3.97;;;;;;;;;;5017720;28;20052;-85
2023/10/16 06:25:55;;;;;;;11.95;3.88;;;;;;;;;;5013012;28;20057;-88
2023/10/16 06:28:22;;;;;;;11.70;4.22;;;;;;;;;;5007463;28;20489;-86
2023/10/16 06:30:48;;;;;;;4.22;2.85;;;;;;;;;;5009408;28;20022;-87
2023/10/16 06:33:15;;;;;;;11.57;3.60;;;;;;;;;;5017951;28;20018;-86
2023/10/16 06:35:41;;;;;;;8.18;4.90;;;;;;;;;;5013471;28;20026;-85
2023/10/16 06:38:11;;;;;;;7.10;4.05;;;;;;;;;;5034429;28;20098;-85
2023/10/16 06:40:40;;;;;;;7.70;3.58;;;;;;;;;;5024624;28;20022;-85
2023/10/16 06:43:14;;;;;;;10.73;4.30;;;;;;;;;;5025974;28;20022;-83
2023/10/16 06:45:57;;;;;;;9.15;4.32;;;;;;;;;;5016836;28;20029;-86
2023/10/16 06:48:27;;;;;;;9.27;4.13;;;;;;;;;;4999684;28;20038;-86
2023/10/16 06:50:54;;;;;;;7.68;3.45;;;;;;;;;;5004171;28;20030;-84
2023/10/16 06:53:24;;;;;;;11.47;4.20;;;;;;;;;;5017613;28;20105;-85
2023/10/16 06:55:53;;;;;;;9.27;4.35;;;;;;;;;;5019100;28;20060;-88
2023/10/16 06:58:21;;;;;;;9.65;3.70;;;;;;;;;;4997150;28;20034;-84
2023/10/16 07:00:47;;;;;;;8.15;4.78;;;;;;;;;;5003322;28;20029;-86
2023/10/16 07:03:14;;;;;;;7.38;3.95;;;;;;;;;;5024057;28;20018;-86
2023/10/16 07:05:43;;;;;;;8.85;3.88;;;;;;;;;;5039168;28;20026;-86
2023/10/16 07:08:19;;;;;;;7.47;3.78;;;;;;;;;;5024854;28;20044;-86
2023/10/16 07:10:49;;;;;;;9.82;4.18;;;;;;;;;;5021589;28;20026;-86
2023/10/16 07:13:28;;;;;;;6.93;4.38;;;;;;;;;;5023957;28;20037;-87
2023/10/16 07:15:56;;;;;;;8.25;3.35;;;;;;;;;;5006711;28;20057;-88
2023/10/16 07:18:24;;;;;;;9.43;4.35;;;;;;;;;;5028544;28;20158;-86
2023/10/16 07:23:34;;;;;;;7.97;4.43;;;;;;;;;;5037993;28;20053;-86
2023/10/16 07:26:00;;;;;;;7.65;4.50;;;;;;;;;;5008549;28;20137;-89
2023/10/16 07:28:27;;;;;;;7.20;3.63;;;;;;;;;;5021578;28;20038;-86
2023/10/16 07:30:56;;;;;;;10.80;4.65;;;;;;;;;;5011968;28;20375;-87
2023/10/16 07:33:23;;;;;;;13.65;4.93;;;;;;;;;;5024461;28;20022;-85
2023/10/16 07:35:49;;;;;;;10.25;4.32;;;;;;;;;;5026381;28;20385;-85
2023/10/16 07:38:20;;;;;;;9.93;3.85;;;;;;;;;;5013375;28;20048;-87
2023/10/16 07:40:51;;;;;;;13.23;4.72;;;;;;;;;;5040079;28;20378;-88
2023/10/16 07:43:17;;;;;;;9.63;7.30;;;;;;;;;;5018447;28;20029;-88
2023/10/16 07:45:45;;;;;;;10.80;5.70;;;;;;;;;;5009300;28;20078;-86
2023/10/16 07:48:20;;;;;;;11.63;6.05;;;;;;;;;;4999085;28;20061;-85
2023/10/16 07:50:50;;;;;;;9.35;5.38;;;;;;;;;;5021605;28;20021;-91
2023/10/16 07:53:17;;;;;;;9.70;4.47;;;;;;;;;;5020588;28;20109;-89
2023/10/16 07:55:50;;;;;;;11.25;5.15;;;;;;;;;;5030852;28;20021;-87
2023/10/16 07:58:23;;;;;;;8.13;4.13;;;;;;;;;;5035876;28;20528;-86
2023/10/16 08:03:36;;;;;;;9.32;4.95;;;;;;;;;;5031919;28;20054;-86
2023/10/16 08:06:06;;;;;;;9.85;4.78;;;;;;;;;;5034132;28;20073;-84
2023/10/16 08:08:36;;;;;;;10.02;4.15;;;;;;;;;;5019911;28;20052;-84
2023/10/16 08:11:12;;;;;;;12.52;5.53;;;;;;;;;;5022044;28;20041;-88
2023/10/16 08:13:46;;;;;;;10.80;6.03;;;;;;;;;;5026311;28;20078;-85
2023/10/16 08:16:18;;;;;;;16.80;8.95;;;;;;;;;;5013382;28;20046;-85
2023/10/16 08:18:45;;;;;;;14.48;6.32;;;;;;;;;;5033680;28;20026;-83
2023/10/16 08:21:25;;;;;;;14.40;6.18;;;;;;;;;;5022824;28;20032;-86
2023/10/16 08:23:53;;;;;;;9.02;5.18;;;;;;;;;;5002094;28;20030;-87
2023/10/16 08:26:28;;;;;;;12.48;7.55;;;;;;;;;;5021153;28;20013;-84
2023/10/16 08:34:45;;;;;;;10.90;5.82;;;;;;;;;;5033773;28;20155;-89
2023/10/16 08:37:13;;;;;;;7.75;4.38;;;;;;;;;;5052607;28;20030;-88
2023/10/16 08:39:47;;;;;;;9.07;5.55;;;;;;;;;;5014740;28;20018;-88
2023/10/16 08:42:20;;;;;;;8.60;4.93;;;;;;;;;;5000086;28;20521;-87
2023/10/16 08:44:51;;;;;;;11.75;4.90;;;;;;;;;;4999125;28;20122;-86
2023/10/16 08:47:46;;;;;;;10.55;4.68;;;;;;;;;;4998770;28;20040;-84
2023/10/16 08:50:17;;;;;;;12.43;4.90;;;;;;;;;;5003701;28;20437;-82
2023/10/16 08:52:50;;;;;;;12.63;5.00;;;;;;;;;;5026892;28;20052;-83
2023/10/16 08:55:17;;;;;;;9.75;4.47;;;;;;;;;;5022032;28;20479;-85
2023/10/16 08:57:46;;;;;;;13.68;5.97;;;;;;;;;;5015123;28;20108;-87
2023/10/16 09:00:21;;;;;;;13.82;5.82;;;;;;;;;;5001849;28;20033;-85
2023/10/16 09:02:51;;;;;;;14.60;8.45;;;;;;;;;;5012277;28;20026;-82
2023/10/16 09:05:17;;;;;;;10.32;5.13;;;;;;;;;;5034045;28;20359;-84
2023/10/16 09:07:43;;;;;;;10.15;5.80;;;;;;;;;;5032622;28;20454;-85
2023/10/16 09:10:10;;;;;;;14.18;6.28;;;;;;;;;;5029533;28;20018;-84
2023/10/16 09:12:52;;;;;;;8.03;5.37;;;;;;;;;;5029895;28;20026;-87
2023/10/16 09:15:24;;;;;;;11.85;5.05;;;;;;;;;;5024076;28;20077;-81
2023/10/16 09:17:56;;;;;;;10.85;5.25;;;;;;;;;;5042508;28;20565;-82
2023/10/16 09:20:33;;;;;;;8.25;4.57;;;;;;;;;;5004482;28;20066;-82
2023/10/16 09:23:02;;;;;;;11.23;4.75;;;;;;;;;;5020257;28;20112;-83
2023/10/16 09:25:31;;;;;;;11.00;4.88;;;;;;;;;;5034545;28;20067;-84
2023/10/16 09:27:57;;;;;;;8.00;4.45;;;;;;;;;;5043783;28;20056;-83
2023/10/16 09:30:24;;;;;;;11.48;5.32;;;;;;;;;;5035521;28;20513;-81
2023/10/16 09:32:51;;;;;;;6.00;3.60;;;;;;;;;;5031732;28;20120;-81
2023/10/16 09:35:30;;;;;;;12.50;4.40;;;;;;;;;;5015942;28;20044;-85
2023/10/16 09:38:10;;;;;;;11.63;5.25;;;;;;;;;;5004866;28;20034;-82
2023/10/16 09:40:39;;;;;;;10.38;5.25;;;;;;;;;;5014057;28;20022;-82
2023/10/16 09:43:05;;;;;;;8.00;4.45;;;;;;;;;;5013555;28;20029;-82
2023/10/16 09:45:38;;;;;;;8.55;5.15;;;;;;;;;;5014556;28;20026;-82
2023/10/16 09:48:19;;;;;;;6.80;4.45;;;;;;;;;;5016851;28;20116;-83
2023/10/16 09:50:47;;;;;;;9.00;4.30;;;;;;;;;;5037949;28;20344;-83
2023/10/16 09:53:14;;;;;;;7.18;4.00;;;;;;;;;;5016314;28;20029;-83
2023/10/16 09:55:44;;;;;;;8.63;4.03;;;;;;;;;;5021660;28;20029;-83
2023/10/16 09:58:11;;;;;;;9.25;4.22;;;;;;;;;;4998775;28;20040;-81
2023/10/16 10:00:46;;;;;;;8.50;4.60;;;;;;;;;;4998920;28;20032;-84
2023/10/16 10:03:12;;;;;;;9.70;4.32;;;;;;;;;;5017662;28;20018;-81
2023/10/16 10:08:38;;;;;;;6.05;3.67;;;;;;;;;;5020231;28;20033;-89
2023/10/16 10:11:23;;;;;;;11.30;3.75;;;;;;;;;;5020733;28;20028;-86
2023/10/16 10:14:09;;;;;;;11.20;4.25;;;;;;;;;;5012731;28;20117;-84
2023/10/16 10:16:36;;;;;;;10.10;5.47;;;;;;;;;;5014600;28;20037;-85
2023/10/16 10:19:05;;;;;;;10.02;6.55;;;;;;;;;;5023324;28;20022;-84
2023/10/16 10:21:44;;;;;;;12.07;5.60;;;;;;;;;;5014516;28;20027;-86
2023/10/16 10:24:15;;;;;;;7.60;4.85;;;;;;;;;;5014440;28;20113;-85
2023/10/16 10:26:55;;;;;;;9.23;4.45;;;;;;;;;;5021175;28;20025;-85
2023/10/16 10:29:22;;;;;;;7.60;4.97;;;;;;;;;;5006304;28;20065;-83
2023/10/16 10:31:51;;;;;;;11.02;5.70;;;;;;;;;;5007892;28;20545;-85
2023/10/16 10:34:27;;;;;;;8.55;4.72;;;;;;;;;;5030434;28;20024;-84
2023/10/16 10:36:53;;;;;;;8.82;4.35;;;;;;;;;;5013566;28;20109;-86
2023/10/16 10:39:25;;;;;;;9.00;4.80;;;;;;;;;;5015956;28;20026;-86
2023/10/16 10:41:54;;;;;;;8.50;4.53;;;;;;;;;;4997700;28;20029;-85
2023/10/16 10:44:29;;;;;;;12.45;5.03;;;;;;;;;;5000863;28;20021;-88
2023/10/16 10:46:55;;;;;;;7.22;5.65;;;;;;;;;;5035895;28;20028;-87
2023/10/16 10:49:33;;;;;;;10.35;5.78;;;;;;;;;;5002610;28;20036;-85
2023/10/16 10:51:59;;;;;;;;;;;;;;;;;;5000481;28;20339;-86
2023/10/16 10:54:26;;;;;;;6.00;4.97;;;;;;;;;;5003907;28;19916;-87
2023/10/16 10:56:53;;;;;;;9.65;4.53;;;;;;;;;;5016367;28;20072;-85
2023/10/16 10:59:39;;;;;;;10.20;5.07;;;;;;;;;;5009299;28;20029;-86
2023/10/16 11:04:46;;;;;;;10.27;5.50;;;;;;;;;;5020141;28;20040;-84
2023/10/16 11:07:24;;;;;;;9.55;5.47;;;;;;;;;;5019694;28;20045;-88
2023/10/16 11:09:51;;;;;;;13.48;7.43;;;;;;;;;;4996795;28;20561;-85
2023/10/16 11:12:24;;;;;;;9.38;5.13;;;;;;;;;;5019565;28;20077;-86
2023/10/16 11:14:51;;;;;;;10.07;5.93;;;;;;;;;;5020115;28;20133;-86
2023/10/16 11:17:33;;;;;;;7.95;5.50;;;;;;;;;;5021828;28;20021;-85
2023/10/16 11:20:11;;;;;;;12.57;5.45;;;;;;;;;;5031431;28;20044;-88
2023/10/16 11:22:43;;;;;;;10.88;5.95;;;;;;;;;;5014192;28;20021;-87
2023/10/16 11:25:13;;;;;;;12.73;7.15;;;;;;;;;;5035081;28;20013;-84
2023/10/16 11:27:43;;;;;;;9.30;6.43;;;;;;;;;;5035093;28;20056;-88
2023/10/16 11:30:13;;;;;;;10.18;5.28;;;;;;;;;;5023011;28;20030;-83
2023/10/16 11:32:46;;;;;;;14.48;6.10;;;;;;;;;;5015324;28;20036;-87
2023/10/16 11:35:19;;;;;;;8.80;4.80;;;;;;;;;;5042756;28;20026;-87
2023/10/16 11:37:50;;;;;;;11.20;6.15;;;;;;;;;;5007848;28;20026;-87
2023/10/16 11:40:31;;;;;;;10.45;5.72;;;;;;;;;;5029610;28;20045;-87
2023/10/16 11:42:59;;;;;;;11.57;5.53;;;;;;;;;;5042026;28;20434;-87
2023/10/16 11:45:30;;;;;;;8.43;5.03;;;;;;;;;;5019742;28;20025;-87
2023/10/16 11:50:43;;;;;;;8.55;4.80;;;;;;;;;;5032783;28;20481;-83
2023/10/16 11:53:09;;;;;;;6.95;4.85;;;;;;;;;;5008829;28;20053;-88
2023/10/16 11:55:36;;;;;;;6.63;4.57;;;;;;;;;;5030465;28;20018;-91
2023/10/16 11:58:03;;;;;;;8.38;4.32;;;;;;;;;;5029157;28;20021;-86
2023/10/16 12:00:35;;;;;;;9.10;4.95;;;;;;;;;;5034189;28;20097;-87
2023/10/16 12:03:07;;;;;;;6.07;3.95;;;;;;;;;;5025631;28;20018;-89
2023/10/16 12:05:36;;;;;;;12.98;5.82;;;;;;;;;;5026977;28;20025;-89
2023/10/16 12:08:07;;;;;;;5.55;4.78;;;;;;;;;;5019873;28;20045;-90
2023/10/16 12:10:33;;;;;;;8.27;4.28;;;;;;;;;;5006793;28;20478;-85
2023/10/16 12:13:02;;;;;;;9.63;4.88;;;8.10;99.90;;;;;;5035623;28;20021;-85
2023/10/16 12:15:28;;;;;;;10.48;6.05;;;8.70;99.90;;;;;;5028440;28;20065;-82
2023/10/16 12:17:55;;;;;;;7.38;5.07;;;8.60;99.90;;;;;;5025840;28;20052;-85
2023/10/16 12:20:27;;;;;;;13.43;6.18;;;8.70;99.90;;;;;;5017186;28;20083;-85
2023/10/16 12:22:57;;;;;;;7.85;5.35;;;8.80;99.90;;;;;;4999275;28;20514;-85
2023/10/16 12:25:24;;;;;;;10.95;4.95;;;8.80;99.90;;;;;;5017075;28;20049;-85
2023/10/16 12:27:53;;;;;;;10.05;6.32;;;8.70;99.90;;;;;;5016437;28;20463;-85
2023/10/16 12:30:19;;;;;;;9.50;4.95;;;8.70;99.90;;;;;;5011363;28;20104;-85
2023/10/16 12:32:45;;;;;;;6.90;4.47;;;8.70;99.90;;;;;;5019720;28;20025;-83
2023/10/16 12:35:18;;;;;;;7.13;5.00;;;8.60;99.90;;;;;;5011181;28;20025;-85
2023/10/16 12:37:44;;;;;;;7.25;5.13;;;8.60;99.90;;;;;;5024049;28;20022;-84
2023/10/16 12:40:34;;;;;;;7.53;5.60;;;8.60;99.90;;;;;;5019696;28;20585;-85
2023/10/16 12:43:00;;;;;;;16.98;6.22;;;8.50;99.90;;;;;;5015407;28;20533;-82
2023/10/16 12:45:28;;;;;;;11.20;4.80;;;8.50;99.90;;;;;;4997904;28;20029;-84
2023/10/16 12:47:54;;;;;;;7.78;5.55;;;8.50;99.90;;;;;;5016675;28;20033;-86
2023/10/16 12:50:25;;;;;;;8.90;4.70;;;8.50;99.90;;;;;;5015535;28;20071;-83
2023/10/16 12:53:03;;;;;;;7.85;4.88;;;8.60;99.90;;;;;;5015708;28;20026;-83
2023/10/16 12:55:28;;;;;;;10.30;5.63;;;8.60;99.90;;;;;;5015543;28;20029;-86
2023/10/16 12:57:55;;;;;;;10.32;5.43;;;8.70;99.90;;;;;;5016245;28;20014;-84
2023/10/16 13:00:22;;;;;;;8.25;4.93;;;8.70;99.90;;;;;;5017358;28;20022;-84
2023/10/16 13:02:49;;;;;;;7.88;5.53;;;8.70;99.90;;;;;;5017641;28;20028;-85
2023/10/16 13:05:15;;;;;;;8.30;4.80;;;8.70;99.90;;;;;;5017947;28;20022;-87
2023/10/16 13:07:47;;;;;;;7.70;4.25;;;8.70;99.90;;;;;;5025744;28;20029;-85
2023/10/16 13:10:14;;;;;;;9.10;5.53;;;8.80;99.90;;;;;;5019249;28;20444;-88
2023/10/16 13:12:41;;;;;;;;;;;8.80;99.90;;;;;;5012881;28;20021;-84
2023/10/16 13:15:14;;;;;;;9.85;5.78;;;8.80;99.90;;;;;;5046090;28;19919;-88
2023/10/16 13:17:40;;;;;;;8.25;4.28;;;8.70;99.90;;;;;;5006072;28;20041;-89
2023/10/16 13:20:16;;;;;;;9.40;5.75;;;8.70;99.90;;;;;;5026774;28;20009;-86
2023/10/16 13:22:52;;;;;;;;;;;8.70;99.90;;;;;;5049735;28;20140;-85
2023/10/16 13:25:31;;;;;;;13.10;9.80;;;8.60;99.90;;;;;;4999384;28;20380;-86
2023/10/16 13:27:58;;;;;;;11.45;6.38;;;8.60;99.90;;;;;;5021048;28;20041;-83
2023/10/16 13:30:25;;;;;;;;;;;8.50;99.90;;;;;;5016295;28;20026;-82
2023/10/16 13:32:52;;;;;;;13.32;6.00;;;8.40;99.90;;;;;;4997982;28;19905;-82
2023/10/16 13:35:20;;;;;;;11.20;5.57;;;8.20;99.90;;;;;;5020054;28;20030;-82
2023/10/16 13:37:48;;;;;;;8.57;5.05;;;8.10;99.90;;;;;;5025944;28;20113;-82
2023/10/16 13:40:28;;;;;;;;;;;8.00;99.90;;;;;;5018274;28;20021;-82
2023/10/16 13:42:55;;;;;;;9.02;6.22;;;7.90;99.90;;;;;;4997912;28;20377;-81
2023/10/16 13:45:21;;;;;;;;;;;7.90;99.90;;;;;;5004809;28;20025;-85
2023/10/16 13:47:49;;;;;;;8.50;5.97;;;7.80;99.90;;;;;;5030878;28;20054;-85
2023/10/16 13:50:24;;;;;;;8.52;5.45;;;7.80;99.90;;;;;;5015035;28;20022;-85
2023/10/16 13:52:52;;;;;;;9.23;5.80;;;7.90;99.90;;;;;;5015677;28;20087;-86
2023/10/16 13:55:20;;;;;;;9.43;6.22;;;7.90;99.90;;;;;;5004734;28;20474;-85
2023/10/16 13:57:48;;;;;;;10.05;5.55;;;8.00;99.90;;;;;;5031173;28;20036;-86
2023/10/16 14:00:30;;;;;;;;;;;7.90;99.90;;;;;;5034681;28;20044;-83
2023/10/16 14:05:50;;;;;;;8.30;6.00;;;8.00;99.90;;;;;;5019595;28;20040;-85
2023/10/16 14:08:19;;;;;;;12.15;6.15;;;7.90;99.90;;;;;;5019789;28;20494;-88
2023/10/16 14:10:47;;;;;;;10.48;5.60;;;7.90;99.90;;;;;;5022766;28;20033;-85
2023/10/16 14:13:19;;;;;;;10.07;5.55;;;7.90;99.90;;;;;;5013572;28;20117;-85
2023/10/16 14:15:50;;;;;;;10.05;5.60;;;7.90;99.90;;;;;;5005473;28;20054;-86
2023/10/16 14:18:20;;;;;;;14.38;6.43;;;7.80;99.90;;;;;;5028767;28;20040;-87
2023/10/16 14:20:47;;;;;;;8.55;5.60;;;7.90;99.90;;;;;;5032877;28;20049;-85
2023/10/16 14:23:18;;;;;;;11.60;5.90;;;7.90;99.90;;;;;;5016112;28;20099;-86
2023/10/16 14:25:49;;;;;;;12.38;6.40;;;7.80;99.90;;;;;;5039514;28;20028;-88
2023/10/16 14:28:38;;;;;;;7.72;5.07;;;7.80;99.90;;;;;;5024583;28;20041;-88
2023/10/16 14:31:08;;;;;;;9.48;6.05;;;7.80;99.90;;;;;;5001706;28;20024;-85
2023/10/16 14:33:36;;;;;;;9.63;6.10;;;7.80;99.90;;;;;;5003096;28;20129;-88
2023/10/16 14:36:16;;;;;;;11.05;7.18;;;7.80;99.90;;;;;;5028663;28;20416;-87
2023/10/16 14:38:43;;;;;;;11.20;5.35;;;7.80;99.90;;;;;;5031434;28;20497;-85
2023/10/16 14:41:13;;;;;;;10.18;6.03;;;7.70;99.90;;;;;;5030632;28;20018;-87
2023/10/16 14:43:39;;;;;;;12.43;5.97;;;7.70;99.90;;;;;;5014237;28;20026;-85
2023/10/16 14:46:12;;;;;;;5.65;4.47;;;7.70;99.90;;;;;;5024897;28;20020;-83
2023/10/16 14:48:42;;;;;;;7.43;5.55;;;7.70;99.90;;;;;;5026452;28;20097;-81
2023/10/16 14:51:16;;;;;;;8.85;4.40;;;7.60;99.90;;;;;;5003210;28;20018;-82
2023/10/16 14:53:43;;;;;;;8.23;4.75;;;7.70;99.90;;;;;;5029729;28;20033;-82
2023/10/16 14:56:11;;;;;;;;;;;7.70;99.90;;;;;;5016622;28;20437;-82
2023/10/16 14:58:38;;;;;;;8.60;4.03;;;7.70;99.90;;;;;;5018643;28;20354;-81
2023/10/16 15:01:16;;;;;;;9.73;4.72;;;7.60;99.90;;;;;;5004018;28;20030;-82
2023/10/16 15:03:43;;;;;;;7.82;4.63;;;7.40;99.90;;;;;;5020634;28;20082;-83
2023/10/16 15:06:12;;;;;;;7.93;4.88;;;7.40;99.90;;;;;;5014083;28;20036;-83
2023/10/16 15:08:39;;;;;;;8.60;5.05;;;7.40;99.90;;;;;;5038191;28;20117;-82
2023/10/16 15:11:05;;;;;;;11.35;4.68;;;7.30;99.90;;;;;;5020362;28;20017;-82
2023/10/16 15:13:31;;;;;;;11.43;4.57;;;7.30;99.90;;;;;;5000959;28;20033;-83
2023/10/16 15:15:57;;;;;;;10.02;5.45;;;7.30;99.90;;;;;;5022175;28;20048;-83
2023/10/16 15:18:23;;;;;;;7.35;5.38;;;7.20;99.90;;;;;;5014665;28;20084;-83
2023/10/16 15:20:50;;;;;;;10.60;5.75;;;7.20;99.90;;;;;;5021677;28;20097;-85
2023/10/16 15:23:16;;;;;;;11.27;5.60;;;7.30;99.90;;;;;;5036645;28;20028;-85
2023/10/16 15:25:45;;;;;;;14.20;10.25;;;7.30;99.90;;;;;;5021260;28;20058;-83
2023/10/16 15:28:13;;;;;;;10.32;6.05;;;7.30;99.90;;;;;;5002886;28;20064;-83
2023/10/16 15:30:40;;;;;;;8.65;5.18;;;7.30;99.90;;;;;;5022934;28;20491;-89
2023/10/16 15:33:06;;;;;;;6.35;4.00;;;7.30;99.90;;;;;;4999722;28;20065;-86
2023/10/16 15:35:33;;;;;;;11.50;4.90;;;7.20;99.90;;;;;;5002054;28;20033;-84
2023/10/16 15:37:59;;;;;;;8.25;5.07;;;7.20;99.90;;;;;;5017726;28;20387;-85
2023/10/16 15:40:28;;;;;;;6.65;4.35;;;7.10;99.90;;;;;;5019918;28;20025;-88
2023/10/16 15:42:59;;;;;;;12.25;5.65;;;7.10;99.90;;;;;;5000375;28;20034;-88
2023/10/16 15:45:32;;;;;;;7.80;4.78;;;7.10;99.90;;;;;;5004646;28;20376;-85
2023/10/16 15:48:01;;;;;;;9.57;5.35;;;7.10;99.90;;;;;;5027930;28;20084;-84
2023/10/16 15:50:28;;;;;;;7.28;5.60;;;7.10;99.90;;;;;;5036158;28;20044;-83
2023/10/16 15:52:57;;;;;;;7.20;5.00;;;7.00;99.90;;;;;;5010295;28;20040;-83
2023/10/16 15:55:27;;;;;;;12.10;6.82;;;7.00;99.90;;;;;;5019916;28;20049;-86
2023/10/16 15:57:56;;;;;;;10.57;6.95;;;7.00;99.90;;;;;;5019860;28;20037;-88
2023/10/16 16:00:26;;;;;;;8.20;5.70;;;7.00;99.90;;;;;;5032472;28;20018;-91
2023/10/16 16:02:56;;;;;;;10.45;6.25;;;7.10;99.90;;;;;;5026477;28;20438;-89
2023/10/16 16:05:22;;;;;;;12.02;7.15;;;7.10;99.90;;;;;;5018261;28;20024;-88
2023/10/16 16:07:52;;;;;;;9.77;6.60;;;7.10;99.90;;;;;;5026775;28;20394;-86
2023/10/16 16:10:18;;;;;;;12.27;5.90;;;7.00;99.90;;;;;;5022636;28;20045;-90
2023/10/16 16:12:45;;;;;;;7.85;5.53;;;7.00;99.90;;;;;;5014583;28;20030;-92
2023/10/16 16:15:16;;;;;;;12.55;7.07;;;7.00;99.90;;;;;;5019687;28;20046;-85
2023/10/16 16:17:45;;;;;;;10.48;6.45;;;7.10;99.90;;;;;;5033405;28;20017;-84
2023/10/16 16:20:18;;;;;;;9.20;6.15;;;7.20;99.90;;;;;;5031063;28;20025;-87
2023/10/16 16:22:50;;;;;;;10.23;6.45;;;7.20;99.90;;;;;;5035042;28;20448;-86
2023/10/16 16:25:17;;;;;;;8.52;6.22;;;7.20;99.90;;;;;;5025996;28;20022;-88
2023/10/16 16:27:46;;;;;;;14.13;6.38;;;7.30;99.90;;;;;;5030136;28;20376;-86
2023/10/16 16:30:17;;;;;;;11.15;6.55;;;7.30;99.90;;;;;;5023471;28;20053;-86
2023/10/16 16:32:47;;;;;;;12.73;6.57;;;7.30;99.90;;;;;;5005775;28;20036;-87
2023/10/16 16:35:15;;;;;;;10.52;6.63;;;7.40;99.90;;;;;;5024701;28;20049;-86
2023/10/16 16:37:53;;;;;;;;;;;7.40;99.90;;;;;;5021078;28;20022;-86